sensor_id;sensor_type;location;lat;lon;timestamp;P1;durP1;ratioP1;P2;durP2;ratioP2
37973;SDS011;23796;51.458;7.000;2023-04-15T00:01:39;8.63;;;4.88;;
37973;SDS011;23796;51.458;7.000;2023-04-15T00:04:04;8.15;;;4.63;;
37973;SDS011;23796;51.458;7.000;2023-04-15T00:06:33;10.45;;;5.45;;
37973;SDS011;23796;51.458;7.000;2023-04-15T00:09:01;9.27;;;4.70;;
37973;SDS011;23796;51.458;7.000;2023-04-15T00:11:27;9.85;;;4.90;;
37973;SDS011;23796;51.458;7.000;2023-04-15T00:13:55;7.90;;;4.90;;
37973;SDS011;23796;51.458;7.000;2023-04-15T00:16:23;8.38;;;4.82;;
37973;SDS011;23796;51.458;7.000;2023-04-15T00:18:48;10.35;;;4.82;;
37973;SDS011;23796;51.458;7.000;2023-04-15T00:21:14;6.40;;;4.05;;
37973;SDS011;23796;51.458;7.000;2023-04-15T00:23:42;8.02;;;4.57;;
37973;SDS011;23796;51.458;7.000;2023-04-15T00:26:08;7.38;;;4.80;;
37973;SDS011;23796;51.458;7.000;2023-04-15T00:28:36;8.18;;;5.05;;
37973;SDS011;23796;51.458;7.000;2023-04-15T00:31:02;8.85;;;4.53;;
37973;SDS011;23796;51.458;7.000;2023-04-15T00:33:32;7.43;;;4.55;;
37973;SDS011;23796;51.458;7.000;2023-04-15T00:35:58;7.38;;;4.05;;
37973;SDS011;23796;51.458;7.000;2023-04-15T00:38:26;6.97;;;4.85;;
37973;SDS011;23796;51.458;7.000;2023-04-15T00:40:52;9.55;;;4.95;;
37973;SDS011;23796;51.458;7.000;2023-04-15T00:43:19;8.35;;;4.20;;
37973;SDS011;23796;51.458;7.000;2023-04-15T00:45:44;9.32;;;4.75;;
37973;SDS011;23796;51.458;7.000;2023-04-15T00:48:11;7.10;;;4.72;;
37973;SDS011;23796;51.458;7.000;2023-04-15T00:50:39;10.07;;;4.82;;
37973;SDS011;23796;51.458;7.000;2023-04-15T00:53:05;7.57;;;4.80;;
37973;SDS011;23796;51.458;7.000;2023-04-15T00:55:35;8.30;;;5.13;;
37973;SDS011;23796;51.458;7.000;2023-04-15T00:58:01;8.05;;;4.80;;
37973;SDS011;23796;51.458;7.000;2023-04-15T01:00:27;8.35;;;4.82;;
37973;SDS011;23796;51.458;7.000;2023-04-15T01:02:55;9.25;;;5.18;;
37973;SDS011;23796;51.458;7.000;2023-04-15T01:05:21;10.70;;;6.13;;
37973;SDS011;23796;51.458;7.000;2023-04-15T01:07:47;10.02;;;6.80;;
37973;SDS011;23796;51.458;7.000;2023-04-15T01:10:13;8.77;;;6.18;;
37973;SDS011;23796;51.458;7.000;2023-04-15T01:12:38;9.15;;;7.07;;
37973;SDS011;23796;51.458;7.000;2023-04-15T01:15:09;9.77;;;7.68;;
37973;SDS011;23796;51.458;7.000;2023-04-15T01:17:37;11.15;;;7.50;;
37973;SDS011;23796;51.458;7.000;2023-04-15T01:20:06;13.73;;;7.18;;
37973;SDS011;23796;51.458;7.000;2023-04-15T01:22:34;9.57;;;6.53;;
37973;SDS011;23796;51.458;7.000;2023-04-15T01:25:05;11.15;;;8.70;;
37973;SDS011;23796;51.458;7.000;2023-04-15T01:27:34;13.85;;;9.00;;
37973;SDS011;23796;51.458;7.000;2023-04-15T01:30:01;14.43;;;9.40;;
37973;SDS011;23796;51.458;7.000;2023-04-15T01:32:29;12.60;;;9.13;;
37973;SDS011;23796;51.458;7.000;2023-04-15T01:34:55;12.95;;;9.30;;
37973;SDS011;23796;51.458;7.000;2023-04-15T01:37:23;10.23;;;7.78;;
37973;SDS011;23796;51.458;7.000;2023-04-15T01:39:50;11.95;;;8.27;;
37973;SDS011;23796;51.458;7.000;2023-04-15T01:42:15;12.35;;;9.70;;
37973;SDS011;23796;51.458;7.000;2023-04-15T01:44:45;14.38;;;11.23;;
37973;SDS011;23796;51.458;7.000;2023-04-15T01:47:10;15.80;;;13.18;;
37973;SDS011;23796;51.458;7.000;2023-04-15T01:49:38;21.65;;;17.30;;
37973;SDS011;23796;51.458;7.000;2023-04-15T01:52:06;21.83;;;17.90;;
37973;SDS011;23796;51.458;7.000;2023-04-15T01:54:34;22.67;;;19.70;;
37973;SDS011;23796;51.458;7.000;2023-04-15T01:57:00;19.33;;;17.30;;
37973;SDS011;23796;51.458;7.000;2023-04-15T01:59:29;18.80;;;16.52;;
37973;SDS011;23796;51.458;7.000;2023-04-15T02:01:55;18.65;;;15.48;;
37973;SDS011;23796;51.458;7.000;2023-04-15T02:04:21;17.65;;;14.00;;
37973;SDS011;23796;51.458;7.000;2023-04-15T02:06:51;18.88;;;15.35;;
37973;SDS011;23796;51.458;7.000;2023-04-15T02:09:17;15.07;;;13.10;;
37973;SDS011;23796;51.458;7.000;2023-04-15T02:11:43;12.85;;;9.40;;
37973;SDS011;23796;51.458;7.000;2023-04-15T02:14:12;9.90;;;7.82;;
37973;SDS011;23796;51.458;7.000;2023-04-15T02:16:38;11.10;;;7.03;;
37973;SDS011;23796;51.458;7.000;2023-04-15T02:19:06;10.15;;;6.68;;
37973;SDS011;23796;51.458;7.000;2023-04-15T02:21:34;13.75;;;7.40;;
37973;SDS011;23796;51.458;7.000;2023-04-15T02:24:00;9.27;;;7.18;;
37973;SDS011;23796;51.458;7.000;2023-04-15T02:26:26;8.45;;;6.57;;
37973;SDS011;23796;51.458;7.000;2023-04-15T02:28:52;8.35;;;6.65;;
37973;SDS011;23796;51.458;7.000;2023-04-15T02:31:20;8.20;;;6.22;;
37973;SDS011;23796;51.458;7.000;2023-04-15T02:33:46;8.70;;;6.45;;
37973;SDS011;23796;51.458;7.000;2023-04-15T02:36:12;9.20;;;6.65;;
37973;SDS011;23796;51.458;7.000;2023-04-15T02:38:40;10.23;;;7.43;;
37973;SDS011;23796;51.458;7.000;2023-04-15T02:41:07;9.27;;;6.72;;
37973;SDS011;23796;51.458;7.000;2023-04-15T02:43:34;12.70;;;9.20;;
37973;SDS011;23796;51.458;7.000;2023-04-15T02:45:59;14.90;;;10.65;;
37973;SDS011;23796;51.458;7.000;2023-04-15T02:48:27;18.05;;;11.98;;
37973;SDS011;23796;51.458;7.000;2023-04-15T02:50:53;19.00;;;14.77;;
37973;SDS011;23796;51.458;7.000;2023-04-15T02:53:34;12.95;;;11.20;;
37973;SDS011;23796;51.458;7.000;2023-04-15T02:56:00;13.13;;;10.25;;
37973;SDS011;23796;51.458;7.000;2023-04-15T02:58:25;9.93;;;8.52;;
37973;SDS011;23796;51.458;7.000;2023-04-15T03:00:51;11.43;;;9.07;;
37973;SDS011;23796;51.458;7.000;2023-04-15T03:03:17;11.82;;;8.82;;
37973;SDS011;23796;51.458;7.000;2023-04-15T03:05:43;12.90;;;10.13;;
37973;SDS011;23796;51.458;7.000;2023-04-15T03:08:08;13.10;;;10.05;;
37973;SDS011;23796;51.458;7.000;2023-04-15T03:10:36;11.63;;;8.73;;
37973;SDS011;23796;51.458;7.000;2023-04-15T03:13:02;10.50;;;7.90;;
37973;SDS011;23796;51.458;7.000;2023-04-15T03:15:32;12.05;;;8.50;;
37973;SDS011;23796;51.458;7.000;2023-04-15T03:17:58;10.15;;;8.05;;
37973;SDS011;23796;51.458;7.000;2023-04-15T03:20:26;19.70;;;15.32;;
37973;SDS011;23796;51.458;7.000;2023-04-15T03:22:52;21.08;;;18.98;;
37973;SDS011;23796;51.458;7.000;2023-04-15T03:25:17;20.67;;;18.05;;
37973;SDS011;23796;51.458;7.000;2023-04-15T03:27:43;17.65;;;14.43;;
37973;SDS011;23796;51.458;7.000;2023-04-15T03:30:11;15.27;;;12.43;;
37973;SDS011;23796;51.458;7.000;2023-04-15T03:32:37;12.20;;;9.90;;
37973;SDS011;23796;51.458;7.000;2023-04-15T03:35:05;10.40;;;8.82;;
37973;SDS011;23796;51.458;7.000;2023-04-15T03:37:32;13.25;;;10.50;;
37973;SDS011;23796;51.458;7.000;2023-04-15T03:39:57;14.48;;;10.30;;
37973;SDS011;23796;51.458;7.000;2023-04-15T03:42:23;12.73;;;10.82;;
37973;SDS011;23796;51.458;7.000;2023-04-15T03:44:48;13.13;;;10.75;;
37973;SDS011;23796;51.458;7.000;2023-04-15T03:47:14;16.15;;;10.93;;
37973;SDS011;23796;51.458;7.000;2023-04-15T03:49:40;11.85;;;10.48;;
37973;SDS011;23796;51.458;7.000;2023-04-15T03:52:05;11.48;;;10.20;;
37973;SDS011;23796;51.458;7.000;2023-04-15T03:54:31;12.25;;;9.07;;
37973;SDS011;23796;51.458;7.000;2023-04-15T03:56:59;11.30;;;8.63;;
37973;SDS011;23796;51.458;7.000;2023-04-15T03:59:27;11.68;;;8.73;;
37973;SDS011;23796;51.458;7.000;2023-04-15T04:01:53;9.98;;;8.30;;
37973;SDS011;23796;51.458;7.000;2023-04-15T04:04:18;10.00;;;8.52;;
37973;SDS011;23796;51.458;7.000;2023-04-15T04:06:44;9.82;;;8.30;;
37973;SDS011;23796;51.458;7.000;2023-04-15T04:09:09;10.48;;;8.32;;
37973;SDS011;23796;51.458;7.000;2023-04-15T04:11:35;12.70;;;8.90;;
37973;SDS011;23796;51.458;7.000;2023-04-15T04:14:01;13.65;;;7.57;;
37973;SDS011;23796;51.458;7.000;2023-04-15T04:16:27;10.23;;;7.72;;
37973;SDS011;23796;51.458;7.000;2023-04-15T04:18:52;10.60;;;7.45;;
37973;SDS011;23796;51.458;7.000;2023-04-15T04:21:18;9.63;;;7.80;;
37973;SDS011;23796;51.458;7.000;2023-04-15T04:23:44;11.55;;;6.95;;
37973;SDS011;23796;51.458;7.000;2023-04-15T04:26:12;8.45;;;7.05;;
37973;SDS011;23796;51.458;7.000;2023-04-15T04:28:40;9.50;;;7.03;;
37973;SDS011;23796;51.458;7.000;2023-04-15T04:31:08;8.98;;;7.40;;
37973;SDS011;23796;51.458;7.000;2023-04-15T04:33:34;9.13;;;7.25;;
37973;SDS011;23796;51.458;7.000;2023-04-15T04:36:04;9.15;;;7.18;;
37973;SDS011;23796;51.458;7.000;2023-04-15T04:38:30;9.10;;;7.63;;
37973;SDS011;23796;51.458;7.000;2023-04-15T04:40:55;10.23;;;7.10;;
37973;SDS011;23796;51.458;7.000;2023-04-15T04:43:21;10.98;;;7.63;;
37973;SDS011;23796;51.458;7.000;2023-04-15T04:45:47;9.23;;;6.97;;
37973;SDS011;23796;51.458;7.000;2023-04-15T04:48:12;8.35;;;7.30;;
37973;SDS011;23796;51.458;7.000;2023-04-15T04:50:38;9.70;;;7.03;;
37973;SDS011;23796;51.458;7.000;2023-04-15T04:53:03;9.57;;;7.50;;
37973;SDS011;23796;51.458;7.000;2023-04-15T04:55:29;8.93;;;6.70;;
37973;SDS011;23796;51.458;7.000;2023-04-15T04:58:01;11.15;;;7.95;;
37973;SDS011;23796;51.458;7.000;2023-04-15T05:00:26;10.48;;;7.28;;
37973;SDS011;23796;51.458;7.000;2023-04-15T05:02:55;11.32;;;7.10;;
37973;SDS011;23796;51.458;7.000;2023-04-15T05:05:21;9.40;;;7.40;;
37973;SDS011;23796;51.458;7.000;2023-04-15T05:07:49;9.73;;;7.00;;
37973;SDS011;23796;51.458;7.000;2023-04-15T05:10:17;8.48;;;6.88;;
37973;SDS011;23796;51.458;7.000;2023-04-15T05:12:45;9.75;;;7.65;;
37973;SDS011;23796;51.458;7.000;2023-04-15T05:15:13;9.45;;;7.78;;
37973;SDS011;23796;51.458;7.000;2023-04-15T05:17:39;10.10;;;7.60;;
37973;SDS011;23796;51.458;7.000;2023-04-15T05:20:05;10.45;;;7.93;;
37973;SDS011;23796;51.458;7.000;2023-04-15T05:22:33;9.43;;;7.78;;
37973;SDS011;23796;51.458;7.000;2023-04-15T05:24:59;9.60;;;7.18;;
37973;SDS011;23796;51.458;7.000;2023-04-15T05:27:27;9.27;;;7.85;;
37973;SDS011;23796;51.458;7.000;2023-04-15T05:29:55;9.88;;;7.47;;
37973;SDS011;23796;51.458;7.000;2023-04-15T05:32:21;10.90;;;8.10;;
37973;SDS011;23796;51.458;7.000;2023-04-15T05:34:49;10.25;;;7.82;;
37973;SDS011;23796;51.458;7.000;2023-04-15T05:37:14;10.07;;;7.53;;
37973;SDS011;23796;51.458;7.000;2023-04-15T05:39:40;10.27;;;8.40;;
37973;SDS011;23796;51.458;7.000;2023-04-15T05:42:06;9.57;;;7.95;;
37973;SDS011;23796;51.458;7.000;2023-04-15T05:44:32;10.38;;;7.93;;
37973;SDS011;23796;51.458;7.000;2023-04-15T05:46:57;12.32;;;8.63;;
37973;SDS011;23796;51.458;7.000;2023-04-15T05:49:23;9.50;;;7.85;;
37973;SDS011;23796;51.458;7.000;2023-04-15T05:51:51;10.15;;;8.10;;
37973;SDS011;23796;51.458;7.000;2023-04-15T05:54:19;10.10;;;8.48;;
37973;SDS011;23796;51.458;7.000;2023-04-15T05:56:47;10.88;;;8.15;;
37973;SDS011;23796;51.458;7.000;2023-04-15T05:59:15;9.50;;;8.15;;
37973;SDS011;23796;51.458;7.000;2023-04-15T06:01:43;9.32;;;8.10;;
37973;SDS011;23796;51.458;7.000;2023-04-15T06:04:09;11.18;;;8.30;;
37973;SDS011;23796;51.458;7.000;2023-04-15T06:06:35;9.32;;;8.07;;
37973;SDS011;23796;51.458;7.000;2023-04-15T06:09:04;11.02;;;8.55;;
37973;SDS011;23796;51.458;7.000;2023-04-15T06:11:32;9.75;;;7.93;;
37973;SDS011;23796;51.458;7.000;2023-04-15T06:13:58;9.38;;;7.95;;
37973;SDS011;23796;51.458;7.000;2023-04-15T06:16:23;10.77;;;8.50;;
37973;SDS011;23796;51.458;7.000;2023-04-15T06:18:53;12.02;;;8.73;;
37973;SDS011;23796;51.458;7.000;2023-04-15T06:21:19;11.18;;;9.60;;
37973;SDS011;23796;51.458;7.000;2023-04-15T06:23:45;9.52;;;8.50;;
37973;SDS011;23796;51.458;7.000;2023-04-15T06:26:10;11.77;;;9.13;;
37973;SDS011;23796;51.458;7.000;2023-04-15T06:28:38;10.50;;;9.23;;
37973;SDS011;23796;51.458;7.000;2023-04-15T06:31:04;10.60;;;9.50;;
37973;SDS011;23796;51.458;7.000;2023-04-15T06:33:30;10.23;;;9.23;;
37973;SDS011;23796;51.458;7.000;2023-04-15T06:35:58;12.27;;;9.05;;
37973;SDS011;23796;51.458;7.000;2023-04-15T06:38:24;13.48;;;9.10;;
37973;SDS011;23796;51.458;7.000;2023-04-15T06:40:50;9.40;;;8.32;;
37973;SDS011;23796;51.458;7.000;2023-04-15T06:43:16;10.52;;;9.07;;
37973;SDS011;23796;51.458;7.000;2023-04-15T06:45:42;12.10;;;9.40;;
37973;SDS011;23796;51.458;7.000;2023-04-15T06:48:08;11.32;;;9.73;;
37973;SDS011;23796;51.458;7.000;2023-04-15T06:50:34;11.40;;;8.98;;
37973;SDS011;23796;51.458;7.000;2023-04-15T06:52:59;13.82;;;9.57;;
37973;SDS011;23796;51.458;7.000;2023-04-15T06:55:25;10.95;;;9.55;;
37973;SDS011;23796;51.458;7.000;2023-04-15T06:57:53;10.57;;;9.48;;
37973;SDS011;23796;51.458;7.000;2023-04-15T07:00:21;9.68;;;8.68;;
37973;SDS011;23796;51.458;7.000;2023-04-15T07:02:46;9.02;;;8.13;;
37973;SDS011;23796;51.458;7.000;2023-04-15T07:05:12;9.90;;;8.88;;
37973;SDS011;23796;51.458;7.000;2023-04-15T07:07:38;10.70;;;9.07;;
37973;SDS011;23796;51.458;7.000;2023-04-15T07:10:06;10.32;;;8.75;;
37973;SDS011;23796;51.458;7.000;2023-04-15T07:12:32;10.52;;;9.00;;
37973;SDS011;23796;51.458;7.000;2023-04-15T07:14:59;9.52;;;8.52;;
37973;SDS011;23796;51.458;7.000;2023-04-15T07:17:24;11.02;;;8.73;;
37973;SDS011;23796;51.458;7.000;2023-04-15T07:19:52;9.73;;;8.20;;
37973;SDS011;23796;51.458;7.000;2023-04-15T07:22:18;10.30;;;8.50;;
37973;SDS011;23796;51.458;7.000;2023-04-15T07:24:44;9.23;;;8.00;;
37973;SDS011;23796;51.458;7.000;2023-04-15T07:27:10;10.40;;;8.45;;
37973;SDS011;23796;51.458;7.000;2023-04-15T07:29:36;9.18;;;8.18;;
37973;SDS011;23796;51.458;7.000;2023-04-15T07:32:02;9.50;;;7.63;;
37973;SDS011;23796;51.458;7.000;2023-04-15T07:34:27;8.93;;;8.02;;
37973;SDS011;23796;51.458;7.000;2023-04-15T07:36:53;9.90;;;8.90;;
37973;SDS011;23796;51.458;7.000;2023-04-15T07:39:18;9.85;;;7.97;;
37973;SDS011;23796;51.458;7.000;2023-04-15T07:41:44;10.00;;;8.43;;
37973;SDS011;23796;51.458;7.000;2023-04-15T07:44:10;10.52;;;7.65;;
37973;SDS011;23796;51.458;7.000;2023-04-15T07:46:36;8.88;;;7.82;;
37973;SDS011;23796;51.458;7.000;2023-04-15T07:49:04;8.85;;;7.72;;
37973;SDS011;23796;51.458;7.000;2023-04-15T07:51:31;9.68;;;7.97;;
37973;SDS011;23796;51.458;7.000;2023-04-15T07:53:57;10.23;;;7.97;;
37973;SDS011;23796;51.458;7.000;2023-04-15T07:56:23;9.38;;;8.13;;
37973;SDS011;23796;51.458;7.000;2023-04-15T07:58:48;10.77;;;8.38;;
37973;SDS011;23796;51.458;7.000;2023-04-15T08:01:14;9.38;;;7.30;;
37973;SDS011;23796;51.458;7.000;2023-04-15T08:03:40;8.50;;;6.88;;
37973;SDS011;23796;51.458;7.000;2023-04-15T08:06:06;8.15;;;7.28;;
37973;SDS011;23796;51.458;7.000;2023-04-15T08:08:34;7.70;;;6.63;;
37973;SDS011;23796;51.458;7.000;2023-04-15T08:11:05;8.18;;;7.10;;
37973;SDS011;23796;51.458;7.000;2023-04-15T08:13:31;9.07;;;6.95;;
37973;SDS011;23796;51.458;7.000;2023-04-15T08:18:42;10.15;;;6.35;;
37973;SDS011;23796;51.458;7.000;2023-04-15T08:21:08;6.55;;;5.75;;
37973;SDS011;23796;51.458;7.000;2023-04-15T08:23:34;6.53;;;4.63;;
37973;SDS011;23796;51.458;7.000;2023-04-15T08:26:00;4.65;;;3.85;;
37973;SDS011;23796;51.458;7.000;2023-04-15T08:28:26;5.30;;;3.42;;
37973;SDS011;23796;51.458;7.000;2023-04-15T08:30:54;5.93;;;3.40;;
37973;SDS011;23796;51.458;7.000;2023-04-15T08:33:20;6.47;;;3.67;;
37973;SDS011;23796;51.458;7.000;2023-04-15T08:35:45;5.72;;;3.80;;
37973;SDS011;23796;51.458;7.000;2023-04-15T08:38:14;6.70;;;3.90;;
37973;SDS011;23796;51.458;7.000;2023-04-15T08:40:41;4.68;;;3.40;;
37973;SDS011;23796;51.458;7.000;2023-04-15T08:43:21;4.65;;;3.08;;
37973;SDS011;23796;51.458;7.000;2023-04-15T08:45:52;4.82;;;2.97;;
37973;SDS011;23796;51.458;7.000;2023-04-15T08:48:23;4.88;;;3.33;;
37973;SDS011;23796;51.458;7.000;2023-04-15T08:50:52;4.63;;;3.20;;
37973;SDS011;23796;51.458;7.000;2023-04-15T08:53:18;4.72;;;3.58;;
37973;SDS011;23796;51.458;7.000;2023-04-15T08:55:44;5.55;;;4.05;;
37973;SDS011;23796;51.458;7.000;2023-04-15T08:58:15;5.28;;;3.00;;
37973;SDS011;23796;51.458;7.000;2023-04-15T09:00:40;5.53;;;3.63;;
37973;SDS011;23796;51.458;7.000;2023-04-15T09:03:06;5.13;;;3.65;;
37973;SDS011;23796;51.458;7.000;2023-04-15T09:05:35;5.13;;;3.85;;
37973;SDS011;23796;51.458;7.000;2023-04-15T09:08:01;5.22;;;3.33;;
37973;SDS011;23796;51.458;7.000;2023-04-15T09:10:28;6.28;;;3.65;;
37973;SDS011;23796;51.458;7.000;2023-04-15T09:12:55;4.20;;;3.20;;
37973;SDS011;23796;51.458;7.000;2023-04-15T09:15:21;4.70;;;3.20;;
37973;SDS011;23796;51.458;7.000;2023-04-15T09:17:53;4.90;;;3.08;;
37973;SDS011;23796;51.458;7.000;2023-04-15T09:20:19;4.45;;;3.33;;
37973;SDS011;23796;51.458;7.000;2023-04-15T09:22:47;6.70;;;3.70;;
37973;SDS011;23796;51.458;7.000;2023-04-15T09:27:52;4.57;;;3.13;;
37973;SDS011;23796;51.458;7.000;2023-04-15T09:30:24;5.00;;;3.33;;
37973;SDS011;23796;51.458;7.000;2023-04-15T09:32:57;5.30;;;3.45;;
37973;SDS011;23796;51.458;7.000;2023-04-15T09:35:26;5.25;;;3.00;;
37973;SDS011;23796;51.458;7.000;2023-04-15T09:38:08;4.78;;;3.20;;
37973;SDS011;23796;51.458;7.000;2023-04-15T09:40:35;4.40;;;3.08;;
37973;SDS011;23796;51.458;7.000;2023-04-15T09:43:03;4.03;;;2.78;;
37973;SDS011;23796;51.458;7.000;2023-04-15T09:45:29;4.65;;;3.15;;
37973;SDS011;23796;51.458;7.000;2023-04-15T09:47:56;4.63;;;3.22;;
37973;SDS011;23796;51.458;7.000;2023-04-15T09:50:23;4.90;;;2.90;;
37973;SDS011;23796;51.458;7.000;2023-04-15T09:52:52;4.85;;;3.00;;
37973;SDS011;23796;51.458;7.000;2023-04-15T09:55:18;6.47;;;3.22;;
37973;SDS011;23796;51.458;7.000;2023-04-15T09:57:44;3.70;;;2.67;;
37973;SDS011;23796;51.458;7.000;2023-04-15T10:00:11;5.60;;;2.92;;
37973;SDS011;23796;51.458;7.000;2023-04-15T10:02:40;4.03;;;2.42;;
37973;SDS011;23796;51.458;7.000;2023-04-15T10:05:08;3.80;;;2.50;;
37973;SDS011;23796;51.458;7.000;2023-04-15T10:07:38;3.70;;;2.50;;
37973;SDS011;23796;51.458;7.000;2023-04-15T10:10:08;4.80;;;3.30;;
37973;SDS011;23796;51.458;7.000;2023-04-15T10:12:36;4.20;;;3.22;;
37973;SDS011;23796;51.458;7.000;2023-04-15T10:15:11;4.38;;;3.15;;
37973;SDS011;23796;51.458;7.000;2023-04-15T10:17:40;4.80;;;3.47;;
37973;SDS011;23796;51.458;7.000;2023-04-15T10:20:08;4.47;;;3.33;;
37973;SDS011;23796;51.458;7.000;2023-04-15T10:22:36;4.13;;;3.17;;
37973;SDS011;23796;51.458;7.000;2023-04-15T10:25:05;4.38;;;3.30;;
37973;SDS011;23796;51.458;7.000;2023-04-15T10:27:31;4.68;;;3.15;;
37973;SDS011;23796;51.458;7.000;2023-04-15T10:30:00;4.43;;;3.55;;
37973;SDS011;23796;51.458;7.000;2023-04-15T10:32:27;5.00;;;3.33;;
37973;SDS011;23796;51.458;7.000;2023-04-15T10:34:54;4.53;;;3.58;;
37973;SDS011;23796;51.458;7.000;2023-04-15T10:37:33;4.43;;;3.15;;
37973;SDS011;23796;51.458;7.000;2023-04-15T10:40:02;4.70;;;3.58;;
37973;SDS011;23796;51.458;7.000;2023-04-15T10:42:48;6.13;;;4.07;;
37973;SDS011;23796;51.458;7.000;2023-04-15T10:45:17;4.63;;;4.07;;
37973;SDS011;23796;51.458;7.000;2023-04-15T10:47:43;5.10;;;4.05;;
37973;SDS011;23796;51.458;7.000;2023-04-15T10:50:09;5.03;;;3.97;;
37973;SDS011;23796;51.458;7.000;2023-04-15T10:52:36;5.85;;;3.92;;
37973;SDS011;23796;51.458;7.000;2023-04-15T10:57:43;4.35;;;3.33;;
37973;SDS011;23796;51.458;7.000;2023-04-15T11:05:07;5.82;;;4.30;;
37973;SDS011;23796;51.458;7.000;2023-04-15T11:07:39;5.38;;;4.25;;
37973;SDS011;23796;51.458;7.000;2023-04-15T11:12:46;5.82;;;4.70;;
37973;SDS011;23796;51.458;7.000;2023-04-15T11:17:56;5.05;;;4.05;;
37973;SDS011;23796;51.458;7.000;2023-04-15T11:20:23;4.97;;;3.72;;
37973;SDS011;23796;51.458;7.000;2023-04-15T11:22:53;4.20;;;3.33;;
37973;SDS011;23796;51.458;7.000;2023-04-15T11:25:24;6.53;;;3.60;;
37973;SDS011;23796;51.458;7.000;2023-04-15T11:27:52;4.00;;;3.03;;
37973;SDS011;23796;51.458;7.000;2023-04-15T11:30:19;5.20;;;2.90;;
37973;SDS011;23796;51.458;7.000;2023-04-15T11:32:47;6.55;;;2.72;;
37973;SDS011;23796;51.458;7.000;2023-04-15T11:35:14;5.03;;;3.08;;
37973;SDS011;23796;51.458;7.000;2023-04-15T11:37:44;4.90;;;3.20;;
37973;SDS011;23796;51.458;7.000;2023-04-15T11:40:10;4.80;;;3.00;;
37973;SDS011;23796;51.458;7.000;2023-04-15T11:42:36;4.55;;;2.97;;
37973;SDS011;23796;51.458;7.000;2023-04-15T11:45:09;5.85;;;3.67;;
37973;SDS011;23796;51.458;7.000;2023-04-15T11:47:38;5.10;;;3.47;;
37973;SDS011;23796;51.458;7.000;2023-04-15T11:50:17;4.97;;;3.22;;
37973;SDS011;23796;51.458;7.000;2023-04-15T11:52:57;5.15;;;3.30;;
37973;SDS011;23796;51.458;7.000;2023-04-15T11:55:26;5.85;;;3.42;;
37973;SDS011;23796;51.458;7.000;2023-04-15T11:58:07;5.07;;;2.92;;
37973;SDS011;23796;51.458;7.000;2023-04-15T12:00:37;4.22;;;3.15;;
37973;SDS011;23796;51.458;7.000;2023-04-15T12:06:19;5.25;;;3.55;;
37973;SDS011;23796;51.458;7.000;2023-04-15T12:08:49;4.80;;;3.50;;
37973;SDS011;23796;51.458;7.000;2023-04-15T12:14:04;5.38;;;3.58;;
37973;SDS011;23796;51.458;7.000;2023-04-15T12:16:35;7.60;;;3.53;;
37973;SDS011;23796;51.458;7.000;2023-04-15T12:19:09;7.38;;;4.07;;
37973;SDS011;23796;51.458;7.000;2023-04-15T12:21:38;4.80;;;3.65;;
37973;SDS011;23796;51.458;7.000;2023-04-15T12:24:06;4.10;;;2.92;;
37973;SDS011;23796;51.458;7.000;2023-04-15T12:29:04;4.68;;;3.03;;
37973;SDS011;23796;51.458;7.000;2023-04-15T12:31:35;5.38;;;3.03;;
37973;SDS011;23796;51.458;7.000;2023-04-15T12:34:01;5.15;;;3.15;;
37973;SDS011;23796;51.458;7.000;2023-04-15T12:36:28;5.05;;;3.22;;
37973;SDS011;23796;51.458;7.000;2023-04-15T12:39:00;4.50;;;2.67;;
37973;SDS011;23796;51.458;7.000;2023-04-15T12:41:31;5.10;;;2.88;;
37973;SDS011;23796;51.458;7.000;2023-04-15T12:43:57;4.38;;;3.05;;
37973;SDS011;23796;51.458;7.000;2023-04-15T12:46:25;4.60;;;3.47;;
37973;SDS011;23796;51.458;7.000;2023-04-15T12:48:51;7.88;;;2.97;;
37973;SDS011;23796;51.458;7.000;2023-04-15T12:51:17;4.82;;;2.60;;
37973;SDS011;23796;51.458;7.000;2023-04-15T12:53:45;3.97;;;2.67;;
37973;SDS011;23796;51.458;7.000;2023-04-15T12:56:13;4.13;;;2.90;;
37973;SDS011;23796;51.458;7.000;2023-04-15T12:58:40;4.70;;;2.72;;
37973;SDS011;23796;51.458;7.000;2023-04-15T13:01:07;4.75;;;3.13;;
37973;SDS011;23796;51.458;7.000;2023-04-15T13:03:32;4.75;;;3.33;;
37973;SDS011;23796;51.458;7.000;2023-04-15T13:05:58;6.57;;;3.60;;
37973;SDS011;23796;51.458;7.000;2023-04-15T13:08:26;5.13;;;3.03;;
37973;SDS011;23796;51.458;7.000;2023-04-15T13:10:51;4.68;;;3.10;;
37973;SDS011;23796;51.458;7.000;2023-04-15T13:13:20;6.07;;;3.20;;
37973;SDS011;23796;51.458;7.000;2023-04-15T13:15:45;5.97;;;3.78;;
37973;SDS011;23796;51.458;7.000;2023-04-15T13:18:13;5.47;;;2.63;;
37973;SDS011;23796;51.458;7.000;2023-04-15T13:20:38;5.95;;;3.30;;
37973;SDS011;23796;51.458;7.000;2023-04-15T13:23:07;4.05;;;2.88;;
37973;SDS011;23796;51.458;7.000;2023-04-15T13:25:32;4.68;;;3.00;;
37973;SDS011;23796;51.458;7.000;2023-04-15T13:27:58;5.13;;;2.85;;
37973;SDS011;23796;51.458;7.000;2023-04-15T13:30:25;5.47;;;3.30;;
37973;SDS011;23796;51.458;7.000;2023-04-15T13:32:51;4.93;;;2.67;;
37973;SDS011;23796;51.458;7.000;2023-04-15T13:35:18;5.32;;;2.35;;
37973;SDS011;23796;51.458;7.000;2023-04-15T13:37:44;4.05;;;2.55;;
37973;SDS011;23796;51.458;7.000;2023-04-15T13:40:12;5.53;;;2.53;;
37973;SDS011;23796;51.458;7.000;2023-04-15T13:42:38;4.22;;;2.38;;
37973;SDS011;23796;51.458;7.000;2023-04-15T13:45:04;4.57;;;2.80;;
37973;SDS011;23796;51.458;7.000;2023-04-15T13:47:32;4.35;;;2.38;;
37973;SDS011;23796;51.458;7.000;2023-04-15T13:49:57;4.90;;;2.42;;
37973;SDS011;23796;51.458;7.000;2023-04-15T13:52:23;5.80;;;2.50;;
37973;SDS011;23796;51.458;7.000;2023-04-15T13:54:49;5.72;;;3.55;;
37973;SDS011;23796;51.458;7.000;2023-04-15T13:57:15;6.07;;;2.70;;
37973;SDS011;23796;51.458;7.000;2023-04-15T13:59:43;5.90;;;2.88;;
37973;SDS011;23796;51.458;7.000;2023-04-15T14:02:08;5.10;;;2.67;;
37973;SDS011;23796;51.458;7.000;2023-04-15T14:04:34;4.50;;;2.53;;
37973;SDS011;23796;51.458;7.000;2023-04-15T14:07:00;6.20;;;2.83;;
37973;SDS011;23796;51.458;7.000;2023-04-15T14:09:28;4.53;;;2.50;;
37973;SDS011;23796;51.458;7.000;2023-04-15T14:11:53;4.43;;;2.80;;
37973;SDS011;23796;51.458;7.000;2023-04-15T14:14:20;5.90;;;2.60;;
37973;SDS011;23796;51.458;7.000;2023-04-15T14:16:45;4.78;;;2.78;;
37973;SDS011;23796;51.458;7.000;2023-04-15T14:19:12;5.22;;;2.70;;
37973;SDS011;23796;51.458;7.000;2023-04-15T14:21:40;4.68;;;2.35;;
37973;SDS011;23796;51.458;7.000;2023-04-15T14:24:06;4.50;;;2.75;;
37973;SDS011;23796;51.458;7.000;2023-04-15T14:26:32;5.22;;;2.40;;
37973;SDS011;23796;51.458;7.000;2023-04-15T14:28:57;5.35;;;2.60;;
37973;SDS011;23796;51.458;7.000;2023-04-15T14:31:23;5.28;;;2.80;;
37973;SDS011;23796;51.458;7.000;2023-04-15T14:33:49;4.05;;;2.60;;
37973;SDS011;23796;51.458;7.000;2023-04-15T14:36:17;4.20;;;2.50;;
37973;SDS011;23796;51.458;7.000;2023-04-15T14:38:45;5.25;;;2.60;;
37973;SDS011;23796;51.458;7.000;2023-04-15T14:41:10;4.65;;;2.28;;
37973;SDS011;23796;51.458;7.000;2023-04-15T14:43:36;6.15;;;2.90;;
37973;SDS011;23796;51.458;7.000;2023-04-15T14:46:02;8.18;;;2.67;;
37973;SDS011;23796;51.458;7.000;2023-04-15T14:48:28;4.88;;;2.47;;
37973;SDS011;23796;51.458;7.000;2023-04-15T14:50:55;5.97;;;2.50;;
37973;SDS011;23796;51.458;7.000;2023-04-15T14:53:21;4.85;;;2.30;;
37973;SDS011;23796;51.458;7.000;2023-04-15T14:55:49;3.45;;;2.10;;
37973;SDS011;23796;51.458;7.000;2023-04-15T14:58:18;3.45;;;1.98;;
37973;SDS011;23796;51.458;7.000;2023-04-15T15:00:46;4.38;;;2.50;;
37973;SDS011;23796;51.458;7.000;2023-04-15T15:03:11;4.07;;;1.98;;
37973;SDS011;23796;51.458;7.000;2023-04-15T15:08:08;6.05;;;2.28;;
37973;SDS011;23796;51.458;7.000;2023-04-15T15:10:35;3.72;;;2.00;;
37973;SDS011;23796;51.458;7.000;2023-04-15T15:13:02;6.32;;;2.80;;